• Join FlightAware (Why Join?)
  • Login
  • US Flag 
06:08AM EST


 

Airport Tracker/Info


-or-


 

Live Flight TrackerFlight Track Log ✈ KAP291 ✈ 21-Aug-2013 ✈ KBOS - KMVY

Flight Track Log - Related Links

Times and Time Zones

All times are in EDT time to prevent confusion due to time zone crossing. See the KAP291 flight status page for this flight to view local times or setup timezone preferences in your user account.

Time Position Orientation Groundspeed Altitude Reporting Facility
EDT Latitude Longitude Course Direction KTS MPH feet Rate Location/Type
08:19PM 41.3934 -70.6139 163° South  Level Estimated
08:20PM 41.3934 -70.6139 304° West  Level Estimated
08:21PM 41.3934 -70.6139 304° West  Level Estimated
08:22PM 41.3934 -70.6139 304° West  Level Estimated
08:23PM 41.3934 -70.6139 304° West  Level Estimated
08:24PM 41.3934 -70.6139 304° West  Level Estimated
08:25PM 41.3934 -70.6139 304° West  Level Estimated
08:26PM 41.3934 -70.6139 304° West  Level Estimated
08:27PM 41.3934 -70.6139 304° West  Level Estimated
08:28PM 41.3934 -70.6139 304° West  Level Estimated
08:29PM 41.3934 -70.6139 304° West  Level Estimated
08:30PM 41.3934 -70.6139 304° West  Level Estimated
08:31PM 41.3934 -70.6139 304° West  Level Estimated
08:32PM 41.3934 -70.6139 304° West  Level Estimated
08:33PM 41.3934 -70.6139 304° West  Level Estimated
08:34PM 41.3934 -70.6139 304° West  Level Estimated
08:35PM 41.3934 -70.6139 304° West  Level Estimated
08:36PM 41.3934 -70.6139 304° West  Level Estimated
08:37PM 41.3934 -70.6139 304° West  Level Estimated
08:38PM 41.3934 -70.6139 304° West  Level Estimated
08:39PM 41.3934 -70.6139 304° West  Level Estimated
08:40PM 41.3934 -70.6139 304° West  Level Estimated
08:41PM 41.3934 -70.6139 304° West  Level Estimated
08:42PM 41.3934 -70.6139 304° West  Level Estimated
08:43PM 41.3934 -70.6139 304° West  Level Estimated
08:44PM 41.3934 -70.6139 304° West  Level Estimated
08:45PM 41.3934 -70.6139 304° West  Level Estimated
08:46PM 41.3934 -70.6139 304° West  Level Estimated
08:47PM 41.3934 -70.6139 304° West  Level Estimated
08:48PM 41.3934 -70.6139 304° West  Level Estimated
08:49PM 41.3934 -70.6139 304° West  Level Estimated
08:49PM 42.3500 -71.0333 216° Southwest 109 125 1,000  Level KA90
08:50PM 41.3934 -70.6139 304° West  Level Estimated
08:50PM 42.3167 -71.0667 216° Southwest 116 133 1,600  Level KA90
08:51PM 41.3934 -70.6139 304° West  Level Estimated
08:51PM 42.2833 -71.0833 200° South 124 143 2,000  Level KA90
08:52PM 41.3934 -70.6139 304° West  Level Estimated
08:52PM 42.2667 -71.0667 143° Southeast 133 153 2,400  Level KA90
08:53PM 41.3934 -70.6139 304° West  Level Estimated
08:53PM 42.2333 -71.0167 132° Southeast 141 162 2,800  Level KA90
08:54PM 41.3934 -70.6139 304° West  Level Estimated
08:54PM 42.2000 -70.9833 143° Southeast 137 158 3,400  Level KA90
08:55PM 42.1667 -70.9833 180° South 134 154 3,800 420 Climbing KA90
08:57PM 42.1159 -70.9588 166° South  Level Estimated
09:04PM 41.8865 -70.8029 161° South  Level FlightAware Approximate
09:05PM 41.8516 -70.7870 161° South  Level FlightAware Approximate
09:06PM 41.8168 -70.7712 161° South  Level FlightAware Approximate
09:07PM 41.7820 -70.7554 161° South  Level FlightAware Approximate
09:08PM 41.7471 -70.7396 161° South  Level FlightAware Approximate
09:09PM 41.7119 -70.7253 164° South  Level FlightAware Approximate
09:10PM 41.6765 -70.7120 164° South  Level FlightAware Approximate
09:11PM 41.6411 -70.6987 164° South  Level FlightAware Approximate
09:12PM 41.6057 -70.6855 164° South  Level FlightAware Approximate
09:13PM 41.5703 -70.6722 164° South  Level FlightAware Approximate
09:14PM 41.5349 -70.6589 164° South  Level FlightAware Approximate
09:15PM 41.4995 -70.6456 164° South  Level FlightAware Approximate
09:16PM 41.4641 -70.6323 163° South  Level FlightAware Approximate
09:17PM 41.4288 -70.6182 163° South  Level FlightAware Approximate
09:18PM 41.3936 -70.6041 163° South  Level FlightAware Approximate
09:19PM 41.3833 -70.6000 163° South  Level FlightAware Approximate
09:20PM 41.3934 -70.6139 163° South  Level Estimated
09:21PM 41.3934 -70.6139 163° South  Level Estimated